Doniphan, Missouri
Current Conditions -  °F | °C
As of 8:55 AM on Sunday 21 Dec 2014 (Local Time) from K4M9 Reporting Station
Clear Clear  
Wind Chill: 32°   Ceiling: Unl
Heat Index: 39°   Visibility: 7mi
Dew Point: 32°   Wind: 13mph
Humidity: 75%   Direction: 90°E
Pressure: 30.2"   Gusts: NA
Location:  36.62°N, 90.82°W
Report Text: K4M9 211455Z AUTO 09011KT 7SM CLR 04/00 A3020 RMK AO2
Loading
Personal Weather Stations






























Interactive Weather Map New forecast layout! Learn more

10-Day Weather Forecast

Advertisements
Track Severe Weather on mobile